createdAt,value
2023-04-29T00:01:27.597Z,99415.47
2023-04-29T00:03:54.740Z,99408.66
2023-04-29T00:06:22.084Z,99416.09
2023-04-29T00:08:49.159Z,99406.56
2023-04-29T00:11:17.412Z,99406.81
2023-04-29T00:13:44.321Z,99412.47
2023-04-29T00:16:11.566Z,99417.91
2023-04-29T00:18:38.425Z,99413.41
2023-04-29T00:21:05.444Z,99416.84
2023-04-29T00:23:33.208Z,99412.13
2023-04-29T00:26:00.194Z,99412.97
2023-04-29T00:28:28.754Z,99415.78
2023-04-29T00:30:55.800Z,99409.53
2023-04-29T00:33:22.968Z,99413.44
2023-04-29T00:35:50.727Z,99422.28
2023-04-29T00:38:17.785Z,99421.19
2023-04-29T00:40:45.191Z,99413.44
2023-04-29T00:43:12.271Z,99414.13
2023-04-29T00:45:40.620Z,99412.25
2023-04-29T00:48:07.888Z,99408.13
2023-04-29T00:50:35.206Z,99415.31
2023-04-29T00:53:02.369Z,99416.69
2023-04-29T00:55:31.239Z,99413.53
2023-04-29T00:57:59.032Z,99410.44
2023-04-29T01:00:26.985Z,99411.88
2023-04-29T01:02:56.491Z,99416.22
2023-04-29T01:05:23.593Z,99420.00
2023-04-29T01:08:04.149Z,99414.00
2023-04-29T01:10:41.800Z,99409.88
2023-04-29T01:13:18.293Z,99418.00
2023-04-29T01:15:58.711Z,99421.75
2023-04-29T01:18:33.490Z,99421.53
2023-04-29T01:21:01.362Z,99422.00
2023-04-29T01:23:30.254Z,99433.19
2023-04-29T01:25:58.678Z,99431.03
2023-04-29T01:29:18.810Z,99432.44
2023-04-29T01:31:59.941Z,99432.91
2023-04-29T01:34:37.493Z,99447.97
2023-04-29T01:37:28.419Z,99443.03
2023-04-29T01:40:08.659Z,99441.72
2023-04-29T01:42:48.242Z,99438.56
2023-04-29T01:45:20.652Z,99438.31
2023-04-29T01:47:53.076Z,99435.16
2023-04-29T01:50:20.248Z,99440.56
2023-04-29T01:52:47.310Z,99435.97
2023-04-29T01:55:17.301Z,99439.53
2023-04-29T01:58:04.175Z,99443.88
2023-04-29T02:00:49.469Z,99434.91
2023-04-29T02:03:16.898Z,99438.69
2023-04-29T02:05:47.542Z,99448.22
2023-04-29T02:08:14.442Z,99445.81
2023-04-29T02:10:54.159Z,99435.22
2023-04-29T02:13:32.574Z,99440.63
2023-04-29T02:16:08.564Z,99436.03
2023-04-29T02:18:35.811Z,99439.44
2023-04-29T02:21:04.677Z,99444.03
2023-04-29T02:23:34.544Z,99441.31
2023-04-29T02:26:03.327Z,99440.28
2023-04-29T02:28:30.309Z,99443.78
2023-04-29T02:30:57.882Z,99446.88
2023-04-29T02:33:24.731Z,99442.06
2023-04-29T02:35:51.634Z,99449.34
2023-04-29T02:38:18.639Z,99441.47
2023-04-29T02:40:47.031Z,99441.00
2023-04-29T02:43:16.456Z,99445.13
2023-04-29T02:45:45.332Z,99449.03
2023-04-29T02:48:12.433Z,99443.41
2023-04-29T02:50:39.812Z,99441.03
2023-04-29T02:53:06.727Z,99444.19
2023-04-29T02:55:33.732Z,99441.72
2023-04-29T02:58:06.461Z,99443.03
2023-04-29T03:00:35.130Z,99437.59
2023-04-29T03:03:02.576Z,99443.25
2023-04-29T03:05:29.653Z,99447.25
2023-04-29T03:08:22.213Z,99446.41
2023-04-29T03:10:49.144Z,99457.25
2023-04-29T03:13:16.177Z,99461.72
2023-04-29T03:15:46.101Z,99461.72
2023-04-29T03:18:13.010Z,99454.63
2023-04-29T03:20:41.116Z,99455.25
2023-04-29T03:23:08.184Z,99459.34
2023-04-29T03:25:35.359Z,99445.81
2023-04-29T03:28:02.442Z,99453.47
2023-04-29T03:30:30.421Z,99449.28
2023-04-29T03:32:59.927Z,99465.06
2023-04-29T03:35:29.119Z,99458.59
2023-04-29T03:38:14.398Z,99460.44
2023-04-29T03:40:41.474Z,99460.56
2023-04-29T03:43:08.796Z,99456.06
2023-04-29T03:45:35.863Z,99459.56
2023-04-29T03:48:06.113Z,99454.97
2023-04-29T03:50:33.128Z,99455.09
2023-04-29T03:53:00.420Z,99460.66
2023-04-29T03:55:27.715Z,99463.41
2023-04-29T03:57:54.635Z,99458.75
2023-04-29T04:00:22.030Z,99467.50
2023-04-29T04:02:53.957Z,99462.31
2023-04-29T04:05:22.704Z,99464.69
2023-04-29T04:07:54.440Z,99464.59
2023-04-29T04:10:41.324Z,99466.13
2023-04-29T04:13:19.380Z,99477.13
2023-04-29T04:15:50.334Z,99478.06
2023-04-29T04:18:17.391Z,99480.28
2023-04-29T04:20:46.435Z,99479.59
2023-04-29T04:23:13.756Z,99486.41
2023-04-29T04:25:46.163Z,99496.56
2023-04-29T04:28:39.196Z,99491.03
2023-04-29T04:31:11.146Z,99497.97
2023-04-29T04:33:38.197Z,99505.41
2023-04-29T04:36:07.160Z,99505.63
2023-04-29T04:38:34.290Z,99504.44
2023-04-29T04:41:06.938Z,99508.69
2023-04-29T04:43:38.442Z,99505.63
2023-04-29T04:46:11.141Z,99519.63
2023-04-29T04:48:42.418Z,99524.84
2023-04-29T04:51:13.956Z,99513.13
2023-04-29T04:53:41.267Z,99519.16
2023-04-29T04:56:12.920Z,99515.28
2023-04-29T04:58:39.979Z,99519.53
2023-04-29T05:01:07.030Z,99522.59
2023-04-29T05:03:34.124Z,99522.94
2023-04-29T05:06:01.679Z,99522.19
2023-04-29T05:08:31.898Z,99526.19
2023-04-29T05:11:00.772Z,99535.78
2023-04-29T05:13:27.710Z,99537.41
2023-04-29T05:15:55.074Z,99548.09
2023-04-29T05:18:25.940Z,99552.34
2023-04-29T05:20:52.968Z,99560.59
2023-04-29T05:23:20.324Z,99571.56
2023-04-29T05:25:48.886Z,99567.06
2023-04-29T05:28:17.500Z,99568.84
2023-04-29T05:30:45.489Z,99574.50
2023-04-29T05:33:13.369Z,99571.94
2023-04-29T05:35:40.168Z,99576.06
2023-04-29T05:38:07.179Z,99578.19
2023-04-29T05:40:40.409Z,99581.13
2023-04-29T05:43:43.731Z,99580.19
2023-04-29T05:46:13.633Z,99590.75
2023-04-29T05:48:40.609Z,99588.69
2023-04-29T05:51:07.736Z,99586.16
2023-04-29T05:53:35.016Z,99595.28
2023-04-29T05:56:01.949Z,99595.44
2023-04-29T05:58:32.532Z,99598.19
2023-04-29T06:01:00.902Z,99602.22
2023-04-29T06:03:29.198Z,99602.25
2023-04-29T06:06:16.849Z,99605.72
2023-04-29T06:09:27.568Z,99614.34
2023-04-29T06:11:57.474Z,99614.25
2023-04-29T06:14:24.529Z,99616.28
2023-04-29T06:16:54.813Z,99619.94
2023-04-29T06:19:21.918Z,99616.81
2023-04-29T06:21:49.630Z,99623.84
2023-04-29T06:24:17.799Z,99632.16
2023-04-29T06:26:45.868Z,99628.31
2023-04-29T06:29:13.586Z,99637.28
2023-04-29T06:31:41.198Z,99638.75
2023-04-29T06:34:10.090Z,99629.50
2023-04-29T06:36:47.563Z,99645.03
2023-04-29T06:39:45.842Z,99643.69
2023-04-29T06:42:22.606Z,99651.63
2023-04-29T06:45:30.768Z,99654.22
2023-04-29T06:48:09.416Z,99643.41
2023-04-29T06:50:54.438Z,99654.63
2023-04-29T06:53:23.028Z,99655.88
2023-04-29T06:55:50.954Z,99655.91
2023-04-29T06:58:19.873Z,99668.34
2023-04-29T07:00:48.056Z,99670.81
2023-04-29T07:03:15.946Z,99670.97
2023-04-29T07:05:43.457Z,99673.34
2023-04-29T07:08:12.893Z,99677.78
2023-04-29T07:11:05.629Z,99684.63
2023-04-29T07:13:32.542Z,99682.06
2023-04-29T07:15:59.937Z,99685.81
2023-04-29T07:18:27.492Z,99698.28
2023-04-29T07:20:54.782Z,99695.31
2023-04-29T07:23:23.154Z,99693.50
2023-04-29T07:25:50.489Z,99701.06
2023-04-29T07:28:17.352Z,99706.44
2023-04-29T07:30:44.777Z,99706.69
2023-04-29T07:33:11.938Z,99710.06
2023-04-29T07:40:23.867Z,99714.59
2023-04-29T07:42:53.173Z,99719.03
2023-04-29T07:45:43.294Z,99720.94
2023-04-29T07:48:10.945Z,99724.63
2023-04-29T07:50:37.960Z,99722.72
2023-04-29T07:53:05.594Z,99723.91
2023-04-29T07:55:34.148Z,99728.97
2023-04-29T07:58:01.944Z,99732.19
2023-04-29T08:00:28.934Z,99731.94
2023-04-29T08:02:56.882Z,99733.34
2023-04-29T08:05:34.890Z,99733.69
2023-04-29T08:08:02.467Z,99738.84
2023-04-29T08:10:29.434Z,99741.97
2023-04-29T08:13:00.585Z,99741.13
2023-04-29T08:15:28.950Z,99739.44
2023-04-29T08:17:56.382Z,99741.34
2023-04-29T08:20:23.943Z,99744.72
2023-04-29T08:22:50.967Z,99745.00
2023-04-29T08:25:18.055Z,99747.56
2023-04-29T08:27:45.470Z,99752.84
2023-04-29T08:30:14.168Z,99751.88
2023-04-29T08:32:41.540Z,99754.19
2023-04-29T08:35:09.813Z,99758.97
2023-04-29T08:37:37.332Z,99761.13
2023-04-29T08:40:06.396Z,99761.47
2023-04-29T08:42:35.790Z,99764.63
2023-04-29T08:45:04.587Z,99758.50
2023-04-29T08:47:38.412Z,99763.34
2023-04-29T08:50:09.176Z,99769.50
2023-04-29T08:52:36.131Z,99766.03
2023-04-29T08:55:03.331Z,99765.78
2023-04-29T08:57:36.800Z,99768.25
2023-04-29T09:00:04.594Z,99769.38
2023-04-29T09:02:33.312Z,99763.09
2023-04-29T09:05:10.303Z,99772.94
2023-04-29T09:07:38.819Z,99775.34
2023-04-29T09:10:07.635Z,99766.00
2023-04-29T09:12:34.637Z,99777.16
2023-04-29T09:15:02.862Z,99774.09
2023-04-29T09:17:44.559Z,99780.84
2023-04-29T09:20:30.425Z,99777.97
2023-04-29T09:23:00.448Z,99781.75
2023-04-29T09:25:28.062Z,99784.75
2023-04-29T09:27:56.020Z,99784.78
2023-04-29T09:30:23.680Z,99783.75
2023-04-29T09:33:08.637Z,99780.91
2023-04-29T09:35:41.522Z,99786.22
2023-04-29T09:38:14.147Z,99788.78
2023-04-29T09:40:57.524Z,99793.72
2023-04-29T09:43:27.252Z,99803.34
2023-04-29T09:45:54.386Z,99802.75
2023-04-29T09:48:21.575Z,99799.78
2023-04-29T09:51:02.216Z,99806.81
2023-04-29T09:53:31.522Z,99797.22
2023-04-29T09:56:01.321Z,99806.66
2023-04-29T09:58:30.264Z,99800.41
2023-04-29T10:01:00.581Z,99804.91
2023-04-29T10:03:33.210Z,99814.00
2023-04-29T10:06:04.285Z,99817.41
2023-04-29T10:08:32.802Z,99820.47
2023-04-29T10:11:03.171Z,99807.53
2023-04-29T10:13:35.260Z,99815.69
2023-04-29T10:16:15.394Z,99812.97
2023-04-29T10:18:52.104Z,99815.47
2023-04-29T10:21:28.461Z,99814.84
2023-04-29T10:23:58.640Z,99813.91
2023-04-29T10:26:27.900Z,99818.03
2023-04-29T10:28:56.890Z,99821.94
2023-04-29T10:31:28.947Z,99816.25
2023-04-29T10:33:58.445Z,99822.72
2023-04-29T10:36:29.094Z,99813.34
2023-04-29T10:39:00.716Z,99809.22
2023-04-29T10:41:34.905Z,99813.22
2023-04-29T10:44:04.105Z,99810.97
2023-04-29T10:46:31.197Z,99814.03
2023-04-29T10:49:01.949Z,99811.97
2023-04-29T10:51:33.278Z,99813.59
2023-04-29T10:54:03.625Z,99807.22
2023-04-29T10:56:39.340Z,99806.06
2023-04-29T10:59:11.408Z,99799.06
2023-04-29T11:01:51.122Z,99798.66
2023-04-29T11:04:20.384Z,99799.47
2023-04-29T11:06:54.877Z,99801.94
2023-04-29T11:09:26.229Z,99795.50
2023-04-29T11:12:01.448Z,99793.34
2023-04-29T11:14:33.097Z,99794.34
2023-04-29T11:17:04.297Z,99798.66
2023-04-29T11:19:41.403Z,99798.63
2023-04-29T11:22:28.094Z,99792.31
2023-04-29T11:25:02.931Z,99803.03
2023-04-29T11:27:36.069Z,99799.75
2023-04-29T11:30:06.357Z,99791.56
2023-04-29T11:32:38.252Z,99800.56
2023-04-29T11:35:10.590Z,99790.88
2023-04-29T11:37:40.384Z,99796.25
2023-04-29T11:40:09.835Z,99798.56
2023-04-29T11:42:41.930Z,99794.00
2023-04-29T11:45:10.041Z,99805.28
2023-04-29T11:47:37.071Z,99792.34
2023-04-29T11:50:07.516Z,99798.06
2023-04-29T11:52:38.531Z,99792.59
2023-04-29T11:55:06.548Z,99800.38
2023-04-29T11:57:34.149Z,99795.88
2023-04-29T12:00:01.322Z,99804.38
2023-04-29T12:02:35.343Z,99805.88
2023-04-29T12:05:07.642Z,99797.97
2023-04-29T12:07:35.302Z,99804.63
2023-04-29T12:10:07.648Z,99806.91
2023-04-29T12:12:35.533Z,99806.38
2023-04-29T12:15:03.412Z,99809.09
2023-04-29T12:17:30.972Z,99808.22
2023-04-29T12:19:58.297Z,99813.16
2023-04-29T12:22:31.753Z,99821.22
2023-04-29T12:24:58.661Z,99802.53
2023-04-29T12:27:27.636Z,99811.38
2023-04-29T12:29:54.500Z,99813.53
2023-04-29T12:32:26.050Z,99809.38
2023-04-29T12:34:53.509Z,99816.59
2023-04-29T12:37:23.228Z,99819.16
2023-04-29T12:39:50.845Z,99821.25
2023-04-29T12:42:18.298Z,99829.88
2023-04-29T12:44:47.614Z,99821.78
2023-04-29T12:47:16.435Z,99825.56
2023-04-29T12:49:46.148Z,99822.31
2023-04-29T12:52:13.344Z,99821.44
2023-04-29T12:54:41.269Z,99817.47
2023-04-29T12:57:08.446Z,99829.25
2023-04-29T12:59:35.589Z,99822.50
2023-04-29T13:02:04.103Z,99828.97
2023-04-29T13:04:31.728Z,99827.28
2023-04-29T13:06:58.997Z,99821.31
2023-04-29T13:09:26.405Z,99822.34
2023-04-29T13:11:53.365Z,99835.47
2023-04-29T13:14:21.486Z,99830.00
2023-04-29T13:16:48.692Z,99833.38
2023-04-29T13:19:29.491Z,99825.19
2023-04-29T13:22:01.703Z,99834.53
2023-04-29T13:24:28.662Z,99829.53
2023-04-29T13:26:55.815Z,99837.13
2023-04-29T13:29:23.949Z,99835.66
2023-04-29T13:31:51.204Z,99831.03
2023-04-29T13:34:19.658Z,99822.25
2023-04-29T13:36:46.612Z,99834.91
2023-04-29T13:39:14.898Z,99835.59
2023-04-29T13:41:45.497Z,99832.94
2023-04-29T13:46:44.264Z,99834.59
2023-04-29T13:49:35.823Z,99832.75
2023-04-29T13:57:27.025Z,99846.13
2023-04-29T13:59:52.237Z,99842.97
2023-04-29T14:04:50.415Z,99843.41
2023-04-29T14:07:19.028Z,99853.22
2023-04-29T14:09:46.137Z,99852.47
2023-04-29T14:12:13.874Z,99847.19
2023-04-29T14:14:40.801Z,99853.97
2023-04-29T14:17:08.053Z,99850.13
2023-04-29T14:19:35.067Z,99848.34
2023-04-29T14:22:02.005Z,99848.88
2023-04-29T14:24:30.334Z,99852.34
2023-04-29T14:26:57.207Z,99854.44
2023-04-29T14:29:24.322Z,99852.53
2023-04-29T14:31:51.861Z,99851.97
2023-04-29T14:34:18.878Z,99854.00
2023-04-29T14:36:46.704Z,99859.81
2023-04-29T14:39:13.891Z,99849.72
2023-04-29T14:41:42.316Z,99859.44
2023-04-29T14:44:09.188Z,99858.63
2023-04-29T14:46:36.226Z,99864.41
2023-04-29T14:49:03.501Z,99866.16
2023-04-29T14:51:30.452Z,99864.63
2023-04-29T14:53:57.585Z,99865.66
2023-04-29T14:56:24.741Z,99872.19
2023-04-29T14:58:53.326Z,99879.78
2023-04-29T15:01:20.259Z,99879.06
2023-04-29T15:03:47.294Z,99882.28
2023-04-29T15:06:14.759Z,99870.81
2023-04-29T15:08:41.732Z,99876.81
2023-04-29T15:11:08.593Z,99879.28
2023-04-29T15:13:35.695Z,99880.72
2023-04-29T15:16:05.262Z,99881.78
2023-04-29T15:18:33.063Z,99878.81
2023-04-29T15:20:59.921Z,99879.53
2023-04-29T15:23:26.825Z,99881.63
2023-04-29T15:25:53.668Z,99884.75
2023-04-29T15:28:20.811Z,99883.22
2023-04-29T15:30:47.674Z,99882.88
2023-04-29T15:33:16.067Z,99894.03
2023-04-29T15:35:43.043Z,99887.81
2023-04-29T15:38:10.047Z,99889.47
2023-04-29T15:40:36.957Z,99893.19
2023-04-29T15:43:09.669Z,99898.31
2023-04-29T15:45:36.852Z,99891.19
2023-04-29T15:48:04.054Z,99896.66
2023-04-29T15:50:32.857Z,99898.22
2023-04-29T15:53:00.023Z,99901.72
2023-04-29T15:55:26.928Z,99904.53
2023-04-29T15:57:53.846Z,99911.16
2023-04-29T16:00:20.917Z,99912.63
2023-04-29T16:02:48.159Z,99911.13
2023-04-29T16:05:15.122Z,99910.22
2023-04-29T16:07:43.736Z,99918.19
2023-04-29T16:10:10.775Z,99917.63
2023-04-29T16:12:38.563Z,99921.63
2023-04-29T16:15:07.836Z,99920.34
2023-04-29T16:17:34.811Z,99924.22
2023-04-29T16:20:03.016Z,99926.09
2023-04-29T16:22:30.529Z,99926.66
2023-04-29T16:24:58.856Z,99928.56
2023-04-29T16:27:27.522Z,99925.75
2023-04-29T16:29:55.858Z,99925.56
2023-04-29T16:32:23.913Z,99924.03
2023-04-29T16:34:50.901Z,99927.50
2023-04-29T16:37:17.886Z,99929.63
2023-04-29T16:39:44.924Z,99921.69
2023-04-29T16:42:13.544Z,99928.69
2023-04-29T16:44:40.440Z,99915.91
2023-04-29T16:47:07.790Z,99915.66
2023-04-29T16:49:34.912Z,99917.31
2023-04-29T16:52:01.896Z,99913.44
2023-04-29T16:54:28.836Z,99915.56
2023-04-29T16:56:56.228Z,99914.97
2023-04-29T17:02:00.218Z,99919.84
2023-04-29T17:04:27.304Z,99923.72
2023-04-29T17:06:54.796Z,99933.66
2023-04-29T17:09:21.715Z,99935.06
2023-04-29T17:11:48.735Z,99929.63
2023-04-29T17:14:15.701Z,99931.03
2023-04-29T17:16:42.615Z,99931.88
2023-04-29T17:19:11.097Z,99936.22
2023-04-29T17:21:38.021Z,99935.94
2023-04-29T17:24:05.509Z,99934.66
2023-04-29T17:26:32.489Z,99940.44
2023-04-29T17:28:59.386Z,99941.03
2023-04-29T17:31:26.322Z,99944.94
2023-04-29T17:33:53.164Z,99951.47
2023-04-29T17:36:21.838Z,99940.06
2023-04-29T17:38:49.058Z,99952.63
2023-04-29T17:41:16.114Z,99952.06
2023-04-29T17:43:42.973Z,99948.97
2023-04-29T17:46:09.902Z,99945.88
2023-04-29T17:48:37.124Z,99943.88
2023-04-29T17:51:04.441Z,99948.41
2023-04-29T17:53:33.288Z,99949.97
2023-04-29T17:56:00.252Z,99953.16
2023-04-29T17:58:27.403Z,99949.72
2023-04-29T18:00:54.545Z,99957.31
2023-04-29T18:03:21.544Z,99956.72
2023-04-29T18:05:48.535Z,99962.16
2023-04-29T18:08:15.655Z,99963.81
2023-04-29T18:10:43.954Z,99961.56
2023-04-29T18:13:10.984Z,99959.31
2023-04-29T18:15:38.051Z,99968.56
2023-04-29T18:18:05.166Z,99966.75
2023-04-29T18:20:42.395Z,99967.47
2023-04-29T18:23:09.731Z,99971.28
2023-04-29T18:25:37.840Z,99975.75
2023-04-29T18:28:23.038Z,99971.16
2023-04-29T18:30:51.103Z,99973.25
2023-04-29T18:33:18.499Z,99970.53
2023-04-29T18:35:45.546Z,99964.63
2023-04-29T18:38:12.553Z,99967.47
2023-04-29T18:40:39.581Z,99970.19
2023-04-29T18:43:07.959Z,99964.63
2023-04-29T18:45:35.033Z,99971.47
2023-04-29T18:48:02.030Z,99973.13
2023-04-29T18:50:29.283Z,99977.75
2023-04-29T18:52:56.518Z,99976.69
2023-04-29T18:55:24.550Z,99980.25
2023-04-29T18:57:54.125Z,99989.22
2023-04-29T19:00:22.606Z,99989.34
2023-04-29T19:02:49.925Z,99981.28
2023-04-29T19:05:16.950Z,99984.06
2023-04-29T19:07:44.138Z,99987.25
2023-04-29T19:10:11.409Z,99985.00
2023-04-29T19:12:38.372Z,99991.13
2023-04-29T19:15:06.674Z,99999.41
2023-04-29T19:17:35.249Z,100005.31
2023-04-29T19:20:02.369Z,100004.13
2023-04-29T19:22:30.701Z,100008.72
2023-04-29T19:24:57.656Z,100013.69
2023-04-29T19:27:24.617Z,100008.25
2023-04-29T19:29:51.510Z,100015.00
2023-04-29T19:32:18.704Z,100010.59
2023-04-29T19:34:47.130Z,100025.03
2023-04-29T19:37:14.126Z,100019.81
2023-04-29T19:39:41.026Z,100021.94
2023-04-29T19:42:08.466Z,100026.31
2023-04-29T19:44:35.617Z,100023.00
2023-04-29T19:47:02.559Z,100032.00
2023-04-29T19:49:29.678Z,100025.72
2023-04-29T19:51:57.949Z,100036.44
2023-04-29T19:54:24.835Z,100032.91
2023-04-29T19:56:52.015Z,100039.75
2023-04-29T20:02:06.363Z,100040.06
2023-04-29T20:04:33.889Z,100037.66
2023-04-29T20:07:02.255Z,100037.50
2023-04-29T20:09:29.535Z,100039.41
2023-04-29T20:11:56.404Z,100041.06
2023-04-29T20:14:23.295Z,100046.25
2023-04-29T20:16:51.472Z,100044.38
2023-04-29T20:19:18.337Z,100041.13
2023-04-29T20:21:45.170Z,100043.38
2023-04-29T20:24:13.397Z,100039.53
2023-04-29T20:26:40.315Z,100046.56
2023-04-29T20:29:07.379Z,100044.47
2023-04-29T20:31:34.973Z,100044.22
2023-04-29T20:34:02.078Z,100044.59
2023-04-29T20:36:29.039Z,100049.78
2023-04-29T20:38:55.923Z,100044.59
2023-04-29T20:41:27.088Z,100056.53
2023-04-29T20:43:54.154Z,100054.66
2023-04-29T20:46:21.127Z,100061.50
2023-04-29T20:48:48.372Z,100067.84
2023-04-29T20:51:15.329Z,100062.00
2023-04-29T20:53:42.380Z,100057.44
2023-04-29T20:56:09.362Z,100050.31
2023-04-29T20:58:37.662Z,100060.56
2023-04-29T21:01:05.153Z,100066.69
2023-04-29T21:03:32.078Z,100062.16
2023-04-29T21:05:58.932Z,100066.75
2023-04-29T21:08:25.868Z,100068.91
2023-04-29T21:10:56.199Z,100074.31
2023-04-29T21:13:23.078Z,100072.41
2023-04-29T21:15:51.492Z,100073.50
2023-04-29T21:18:18.353Z,100069.34
2023-04-29T21:20:45.311Z,100074.56
2023-04-29T21:23:12.567Z,100069.94
2023-04-29T21:25:39.533Z,100072.66
2023-04-29T21:28:06.633Z,100072.06
2023-04-29T21:30:33.561Z,100075.00
2023-04-29T21:33:02.026Z,100075.22
2023-04-29T21:35:29.115Z,100080.03
2023-04-29T21:37:56.079Z,100080.47
2023-04-29T21:40:23.361Z,100079.22
2023-04-29T21:42:50.561Z,100083.38
2023-04-29T21:45:18.038Z,100076.19
2023-04-29T21:47:45.319Z,100074.31
2023-04-29T21:50:13.662Z,100078.00
2023-04-29T21:52:41.006Z,100076.59
2023-04-29T21:55:09.252Z,100078.63
2023-04-29T21:57:44.142Z,100079.47
2023-04-29T22:00:14.402Z,100077.34
2023-04-29T22:02:41.222Z,100073.41
2023-04-29T22:05:08.655Z,100082.41
2023-04-29T22:07:36.912Z,100086.38
2023-04-29T22:10:05.455Z,100082.84
2023-04-29T22:12:32.344Z,100083.66
2023-04-29T22:14:59.303Z,100089.09
2023-04-29T22:17:26.224Z,100090.78
2023-04-29T22:19:53.580Z,100087.22
2023-04-29T22:22:20.744Z,100084.13
2023-04-29T22:24:49.093Z,100084.78
2023-04-29T22:27:16.258Z,100091.28
2023-04-29T22:29:43.071Z,100088.34
2023-04-29T22:32:10.055Z,100091.06
2023-04-29T22:34:37.115Z,100094.84
2023-04-29T22:37:04.120Z,100093.16
2023-04-29T22:39:43.739Z,100090.09
2023-04-29T22:42:16.056Z,100100.50
2023-04-29T22:44:45.032Z,100101.75
2023-04-29T22:47:22.361Z,100104.25
2023-04-29T22:49:50.729Z,100105.09
2023-04-29T22:52:52.315Z,100102.81
2023-04-29T22:55:26.576Z,100103.50
2023-04-29T22:58:14.394Z,100098.06
2023-04-29T23:00:44.165Z,100099.94
2023-04-29T23:03:18.746Z,100100.38
2023-04-29T23:05:48.905Z,100103.31
2023-04-29T23:08:16.042Z,100103.09
2023-04-29T23:10:47.298Z,100109.16
2023-04-29T23:13:16.096Z,100110.78
2023-04-29T23:15:43.430Z,100110.00
2023-04-29T23:18:10.680Z,100116.00
2023-04-29T23:20:37.890Z,100115.78
2023-04-29T23:23:05.117Z,100114.13
2023-04-29T23:28:15.293Z,100119.78
2023-04-29T23:30:42.469Z,100118.94
2023-04-29T23:33:09.456Z,100109.38
2023-04-29T23:35:36.445Z,100105.22
2023-04-29T23:38:03.421Z,100108.16
2023-04-29T23:40:31.773Z,100112.75
2023-04-29T23:42:59.171Z,100113.59
2023-04-29T23:45:27.375Z,100115.69
2023-04-29T23:47:54.239Z,100113.41
2023-04-29T23:50:21.172Z,100112.81
2023-04-29T23:52:48.131Z,100120.59
2023-04-29T23:55:15.146Z,100113.91
2023-04-29T23:57:42.431Z,100111.06
